sensor_id;sensor_type;location;lat;lon;timestamp;temperature;humidity
53978;DHT22;39886;47.984;-1.586;2022-12-15T00:02:02;20.20;47.80
53978;DHT22;39886;47.984;-1.586;2022-12-15T00:04:47;20.20;47.70
53978;DHT22;39886;47.984;-1.586;2022-12-15T00:07:32;20.20;47.60
53978;DHT22;39886;47.984;-1.586;2022-12-15T00:10:16;20.10;48.30
53978;DHT22;39886;47.984;-1.586;2022-12-15T00:13:01;20.30;48.60
53978;DHT22;39886;47.984;-1.586;2022-12-15T00:15:48;20.20;47.30
53978;DHT22;39886;47.984;-1.586;2022-12-15T00:18:32;20.30;48.50
53978;DHT22;39886;47.984;-1.586;2022-12-15T00:21:17;20.40;47.60
53978;DHT22;39886;47.984;-1.586;2022-12-15T00:24:01;20.30;47.80
53978;DHT22;39886;47.984;-1.586;2022-12-15T00:26:45;20.40;48.10
53978;DHT22;39886;47.984;-1.586;2022-12-15T00:29:29;20.30;48.50
53978;DHT22;39886;47.984;-1.586;2022-12-15T00:32:14;20.30;47.20
53978;DHT22;39886;47.984;-1.586;2022-12-15T00:34:58;20.40;47.80
53978;DHT22;39886;47.984;-1.586;2022-12-15T00:37:42;20.40;47.80
53978;DHT22;39886;47.984;-1.586;2022-12-15T00:40:26;20.40;48.50
53978;DHT22;39886;47.984;-1.586;2022-12-15T00:42:52;20.40;48.60
53978;DHT22;39886;47.984;-1.586;2022-12-15T00:45:17;20.40;48.40
53978;DHT22;39886;47.984;-1.586;2022-12-15T00:47:43;20.50;47.40
53978;DHT22;39886;47.984;-1.586;2022-12-15T00:50:09;20.40;47.10
53978;DHT22;39886;47.984;-1.586;2022-12-15T00:52:53;20.40;47.30
53978;DHT22;39886;47.984;-1.586;2022-12-15T00:55:37;20.40;47.10
53978;DHT22;39886;47.984;-1.586;2022-12-15T00:58:21;20.40;46.90
53978;DHT22;39886;47.984;-1.586;2022-12-15T01:01:07;20.50;47.00
53978;DHT22;39886;47.984;-1.586;2022-12-15T01:03:51;20.50;47.30
53978;DHT22;39886;47.984;-1.586;2022-12-15T01:06:35;20.40;47.60
53978;DHT22;39886;47.984;-1.586;2022-12-15T01:09:20;20.40;47.30
53978;DHT22;39886;47.984;-1.586;2022-12-15T01:12:04;20.50;46.90
53978;DHT22;39886;47.984;-1.586;2022-12-15T01:14:48;20.50;46.80
53978;DHT22;39886;47.984;-1.586;2022-12-15T01:17:32;20.50;47.30
53978;DHT22;39886;47.984;-1.586;2022-12-15T01:20:16;20.50;47.20
53978;DHT22;39886;47.984;-1.586;2022-12-15T01:22:50;20.50;46.80
53978;DHT22;39886;47.984;-1.586;2022-12-15T01:25:18;20.50;47.20
53978;DHT22;39886;47.984;-1.586;2022-12-15T01:27:45;20.50;46.60
53978;DHT22;39886;47.984;-1.586;2022-12-15T01:30:13;20.60;46.90
53978;DHT22;39886;47.984;-1.586;2022-12-15T01:32:39;20.50;47.00
53978;DHT22;39886;47.984;-1.586;2022-12-15T01:35:05;20.60;46.70
53978;DHT22;39886;47.984;-1.586;2022-12-15T01:37:32;20.60;47.20
53978;DHT22;39886;47.984;-1.586;2022-12-15T01:39:58;20.70;46.80
53978;DHT22;39886;47.984;-1.586;2022-12-15T01:42:42;20.60;46.80
53978;DHT22;39886;47.984;-1.586;2022-12-15T01:47:54;20.60;46.80
53978;DHT22;39886;47.984;-1.586;2022-12-15T01:50:21;20.60;46.20
53978;DHT22;39886;47.984;-1.586;2022-12-15T01:52:49;20.60;46.40
53978;DHT22;39886;47.984;-1.586;2022-12-15T01:55:17;20.60;47.20
53978;DHT22;39886;47.984;-1.586;2022-12-15T01:57:44;20.40;47.60
53978;DHT22;39886;47.984;-1.586;2022-12-15T02:00:12;20.30;47.80
53978;DHT22;39886;47.984;-1.586;2022-12-15T02:02:38;20.10;48.00
53978;DHT22;39886;47.984;-1.586;2022-12-15T02:05:05;20.00;47.60
53978;DHT22;39886;47.984;-1.586;2022-12-15T02:07:32;20.00;48.40
53978;DHT22;39886;47.984;-1.586;2022-12-15T02:09:59;19.90;48.60
53978;DHT22;39886;47.984;-1.586;2022-12-15T02:15:18;19.70;48.70
53978;DHT22;39886;47.984;-1.586;2022-12-15T02:24:23;19.40;49.40
53978;DHT22;39886;47.984;-1.586;2022-12-15T02:27:13;19.30;48.80
53978;DHT22;39886;47.984;-1.586;2022-12-15T02:32:39;19.20;49.50
53978;DHT22;39886;47.984;-1.586;2022-12-15T02:35:14;19.10;49.30
53978;DHT22;39886;47.984;-1.586;2022-12-15T02:37:41;19.10;50.20
53978;DHT22;39886;47.984;-1.586;2022-12-15T02:40:08;19.10;51.00
53978;DHT22;39886;47.984;-1.586;2022-12-15T02:42:37;19.10;49.90
53978;DHT22;39886;47.984;-1.586;2022-12-15T02:45:14;19.00;50.60
53978;DHT22;39886;47.984;-1.586;2022-12-15T02:50:37;18.90;49.50
53978;DHT22;39886;47.984;-1.586;2022-12-15T02:53:28;18.90;50.20
53978;DHT22;39886;47.984;-1.586;2022-12-15T02:56:24;18.90;49.90
53978;DHT22;39886;47.984;-1.586;2022-12-15T02:59:12;19.00;49.50
53978;DHT22;39886;47.984;-1.586;2022-12-15T03:01:43;19.10;49.30
53978;DHT22;39886;47.984;-1.586;2022-12-15T03:04:11;19.30;48.90
53978;DHT22;39886;47.984;-1.586;2022-12-15T03:06:38;19.30;49.60
53978;DHT22;39886;47.984;-1.586;2022-12-15T03:09:04;19.40;49.80
53978;DHT22;39886;47.984;-1.586;2022-12-15T03:11:29;19.50;48.40
53978;DHT22;39886;47.984;-1.586;2022-12-15T03:13:55;19.50;49.00
53978;DHT22;39886;47.984;-1.586;2022-12-15T03:16:21;19.60;48.30
53978;DHT22;39886;47.984;-1.586;2022-12-15T03:18:47;19.60;47.80
53978;DHT22;39886;47.984;-1.586;2022-12-15T03:21:13;19.70;49.00
53978;DHT22;39886;47.984;-1.586;2022-12-15T03:23:38;19.70;48.00
53978;DHT22;39886;47.984;-1.586;2022-12-15T03:26:04;19.80;48.20
53978;DHT22;39886;47.984;-1.586;2022-12-15T03:28:32;19.80;48.30
53978;DHT22;39886;47.984;-1.586;2022-12-15T03:30:57;19.80;48.50
53978;DHT22;39886;47.984;-1.586;2022-12-15T03:33:24;19.80;47.80
53978;DHT22;39886;47.984;-1.586;2022-12-15T03:35:49;19.90;47.90
53978;DHT22;39886;47.984;-1.586;2022-12-15T03:38:16;19.90;48.60
53978;DHT22;39886;47.984;-1.586;2022-12-15T03:40:42;20.00;48.60
53978;DHT22;39886;47.984;-1.586;2022-12-15T03:43:07;20.00;48.10
53978;DHT22;39886;47.984;-1.586;2022-12-15T03:45:33;19.90;48.30
53978;DHT22;39886;47.984;-1.586;2022-12-15T03:47:59;20.00;48.10
53978;DHT22;39886;47.984;-1.586;2022-12-15T03:50:27;20.10;48.60
53978;DHT22;39886;47.984;-1.586;2022-12-15T03:52:55;20.00;48.00
53978;DHT22;39886;47.984;-1.586;2022-12-15T03:55:21;20.00;46.80
53978;DHT22;39886;47.984;-1.586;2022-12-15T03:57:48;20.10;48.30
53978;DHT22;39886;47.984;-1.586;2022-12-15T04:00:14;20.10;47.40
53978;DHT22;39886;47.984;-1.586;2022-12-15T04:02:41;20.10;46.80
53978;DHT22;39886;47.984;-1.586;2022-12-15T04:05:08;20.10;47.00
53978;DHT22;39886;47.984;-1.586;2022-12-15T04:07:38;20.20;47.80
53978;DHT22;39886;47.984;-1.586;2022-12-15T04:10:04;20.20;47.00
53978;DHT22;39886;47.984;-1.586;2022-12-15T04:12:29;20.20;47.40
53978;DHT22;39886;47.984;-1.586;2022-12-15T04:14:55;20.20;47.20
53978;DHT22;39886;47.984;-1.586;2022-12-15T04:17:21;20.30;47.80
53978;DHT22;39886;47.984;-1.586;2022-12-15T04:19:47;20.20;47.70
53978;DHT22;39886;47.984;-1.586;2022-12-15T04:22:31;20.20;46.90
53978;DHT22;39886;47.984;-1.586;2022-12-15T04:24:56;20.30;47.10
53978;DHT22;39886;47.984;-1.586;2022-12-15T04:27:41;20.30;47.00
53978;DHT22;39886;47.984;-1.586;2022-12-15T04:30:25;20.30;46.60
53978;DHT22;39886;47.984;-1.586;2022-12-15T04:33:09;20.30;46.60
53978;DHT22;39886;47.984;-1.586;2022-12-15T04:35:54;20.30;47.00
53978;DHT22;39886;47.984;-1.586;2022-12-15T04:38:39;20.40;46.70
53978;DHT22;39886;47.984;-1.586;2022-12-15T04:41:23;20.30;46.70
53978;DHT22;39886;47.984;-1.586;2022-12-15T04:44:08;20.30;47.10
53978;DHT22;39886;47.984;-1.586;2022-12-15T04:46:53;20.30;46.80
53978;DHT22;39886;47.984;-1.586;2022-12-15T04:49:37;20.30;47.00
53978;DHT22;39886;47.984;-1.586;2022-12-15T04:52:21;20.30;46.80
53978;DHT22;39886;47.984;-1.586;2022-12-15T04:55:06;20.40;46.20
53978;DHT22;39886;47.984;-1.586;2022-12-15T04:57:50;20.40;46.50
53978;DHT22;39886;47.984;-1.586;2022-12-15T05:00:35;20.40;46.60
53978;DHT22;39886;47.984;-1.586;2022-12-15T05:03:19;20.40;48.00
53978;DHT22;39886;47.984;-1.586;2022-12-15T05:06:04;20.40;46.10
53978;DHT22;39886;47.984;-1.586;2022-12-15T05:08:48;20.40;46.30
53978;DHT22;39886;47.984;-1.586;2022-12-15T05:11:32;20.40;46.50
53978;DHT22;39886;47.984;-1.586;2022-12-15T05:14:16;20.40;46.40
53978;DHT22;39886;47.984;-1.586;2022-12-15T05:17:00;20.50;46.20
53978;DHT22;39886;47.984;-1.586;2022-12-15T05:19:44;20.40;45.70
53978;DHT22;39886;47.984;-1.586;2022-12-15T05:22:28;20.30;46.90
53978;DHT22;39886;47.984;-1.586;2022-12-15T05:25:12;20.40;46.40
53978;DHT22;39886;47.984;-1.586;2022-12-15T05:27:56;20.40;45.60
53978;DHT22;39886;47.984;-1.586;2022-12-15T05:30:41;20.50;46.40
53978;DHT22;39886;47.984;-1.586;2022-12-15T05:33:25;20.50;46.80
53978;DHT22;39886;47.984;-1.586;2022-12-15T05:35:50;20.50;46.10
53978;DHT22;39886;47.984;-1.586;2022-12-15T05:38:16;20.50;46.80
53978;DHT22;39886;47.984;-1.586;2022-12-15T05:40:43;20.50;46.60
53978;DHT22;39886;47.984;-1.586;2022-12-15T05:43:08;20.50;46.00
53978;DHT22;39886;47.984;-1.586;2022-12-15T05:45:34;20.50;46.60
53978;DHT22;39886;47.984;-1.586;2022-12-15T05:48:00;20.60;46.60
53978;DHT22;39886;47.984;-1.586;2022-12-15T05:50:25;20.50;45.70
53978;DHT22;39886;47.984;-1.586;2022-12-15T05:52:51;20.50;45.50
53978;DHT22;39886;47.984;-1.586;2022-12-15T05:55:17;20.50;46.20
53978;DHT22;39886;47.984;-1.586;2022-12-15T05:57:49;20.60;45.90
53978;DHT22;39886;47.984;-1.586;2022-12-15T06:00:15;20.50;46.30
53978;DHT22;39886;47.984;-1.586;2022-12-15T06:02:41;20.50;46.00
53978;DHT22;39886;47.984;-1.586;2022-12-15T06:05:07;20.50;46.60
53978;DHT22;39886;47.984;-1.586;2022-12-15T06:07:33;20.50;46.00
53978;DHT22;39886;47.984;-1.586;2022-12-15T06:09:59;20.60;46.00
53978;DHT22;39886;47.984;-1.586;2022-12-15T06:12:24;20.60;45.90
53978;DHT22;39886;47.984;-1.586;2022-12-15T06:14:50;20.50;46.30
53978;DHT22;39886;47.984;-1.586;2022-12-15T06:17:17;20.60;46.60
53978;DHT22;39886;47.984;-1.586;2022-12-15T06:19:42;20.50;46.20
53978;DHT22;39886;47.984;-1.586;2022-12-15T06:22:08;20.60;46.60
53978;DHT22;39886;47.984;-1.586;2022-12-15T06:24:34;20.50;45.60
53978;DHT22;39886;47.984;-1.586;2022-12-15T06:27:00;20.70;46.90
53978;DHT22;39886;47.984;-1.586;2022-12-15T06:29:26;20.60;45.70
53978;DHT22;39886;47.984;-1.586;2022-12-15T06:31:52;20.60;45.70
53978;DHT22;39886;47.984;-1.586;2022-12-15T06:34:18;20.50;46.00
53978;DHT22;39886;47.984;-1.586;2022-12-15T06:36:43;20.60;45.60
53978;DHT22;39886;47.984;-1.586;2022-12-15T06:39:11;20.60;46.00
53978;DHT22;39886;47.984;-1.586;2022-12-15T06:41:37;20.60;45.50
53978;DHT22;39886;47.984;-1.586;2022-12-15T06:44:04;20.60;46.20
53978;DHT22;39886;47.984;-1.586;2022-12-15T06:46:31;20.60;46.40
53978;DHT22;39886;47.984;-1.586;2022-12-15T06:48:58;20.60;45.60
53978;DHT22;39886;47.984;-1.586;2022-12-15T06:51:24;20.60;45.10
53978;DHT22;39886;47.984;-1.586;2022-12-15T06:53:50;20.50;45.50
53978;DHT22;39886;47.984;-1.586;2022-12-15T06:56:25;20.60;45.40
53978;DHT22;39886;47.984;-1.586;2022-12-15T06:58:52;20.60;45.40
53978;DHT22;39886;47.984;-1.586;2022-12-15T07:01:20;20.60;45.50
53978;DHT22;39886;47.984;-1.586;2022-12-15T07:03:46;20.60;45.30
53978;DHT22;39886;47.984;-1.586;2022-12-15T07:06:13;20.60;45.30
53978;DHT22;39886;47.984;-1.586;2022-12-15T07:08:39;20.50;46.30
53978;DHT22;39886;47.984;-1.586;2022-12-15T07:11:07;20.70;45.70
53978;DHT22;39886;47.984;-1.586;2022-12-15T07:13:33;20.60;45.90
53978;DHT22;39886;47.984;-1.586;2022-12-15T07:16:00;20.50;45.20
53978;DHT22;39886;47.984;-1.586;2022-12-15T07:18:26;20.70;46.50
53978;DHT22;39886;47.984;-1.586;2022-12-15T07:20:52;20.60;45.20
53978;DHT22;39886;47.984;-1.586;2022-12-15T07:23:18;20.60;45.10
53978;DHT22;39886;47.984;-1.586;2022-12-15T07:25:44;20.60;45.20
53978;DHT22;39886;47.984;-1.586;2022-12-15T07:28:09;20.60;45.00
53978;DHT22;39886;47.984;-1.586;2022-12-15T07:30:36;20.60;45.70
53978;DHT22;39886;47.984;-1.586;2022-12-15T07:33:02;20.50;45.50
53978;DHT22;39886;47.984;-1.586;2022-12-15T07:35:29;20.50;45.80
53978;DHT22;39886;47.984;-1.586;2022-12-15T07:37:55;20.50;45.10
53978;DHT22;39886;47.984;-1.586;2022-12-15T07:40:21;20.50;44.60
53978;DHT22;39886;47.984;-1.586;2022-12-15T07:42:46;20.50;43.90
53978;DHT22;39886;47.984;-1.586;2022-12-15T07:45:13;20.40;44.10
53978;DHT22;39886;47.984;-1.586;2022-12-15T07:47:39;20.60;43.60
53978;DHT22;39886;47.984;-1.586;2022-12-15T07:50:05;20.50;44.10
53978;DHT22;39886;47.984;-1.586;2022-12-15T07:52:31;20.50;43.70
53978;DHT22;39886;47.984;-1.586;2022-12-15T07:54:57;20.50;43.60
53978;DHT22;39886;47.984;-1.586;2022-12-15T07:57:23;20.50;43.80
53978;DHT22;39886;47.984;-1.586;2022-12-15T07:59:49;20.60;43.40
53978;DHT22;39886;47.984;-1.586;2022-12-15T08:02:15;20.60;43.60
53978;DHT22;39886;47.984;-1.586;2022-12-15T08:04:41;20.50;44.40
53978;DHT22;39886;47.984;-1.586;2022-12-15T08:07:07;20.60;43.40
53978;DHT22;39886;47.984;-1.586;2022-12-15T08:09:33;20.60;44.00
53978;DHT22;39886;47.984;-1.586;2022-12-15T08:11:59;20.70;43.60
53978;DHT22;39886;47.984;-1.586;2022-12-15T08:14:25;20.70;43.60
53978;DHT22;39886;47.984;-1.586;2022-12-15T08:16:53;20.80;43.30
53978;DHT22;39886;47.984;-1.586;2022-12-15T08:19:19;20.70;44.30
53978;DHT22;39886;47.984;-1.586;2022-12-15T08:21:45;20.90;44.00
53978;DHT22;39886;47.984;-1.586;2022-12-15T08:24:12;20.90;44.50
53978;DHT22;39886;47.984;-1.586;2022-12-15T08:26:41;20.90;44.60
53978;DHT22;39886;47.984;-1.586;2022-12-15T08:29:10;20.90;44.50
53978;DHT22;39886;47.984;-1.586;2022-12-15T08:31:36;21.00;44.90
53978;DHT22;39886;47.984;-1.586;2022-12-15T08:34:04;21.00;44.50
53978;DHT22;39886;47.984;-1.586;2022-12-15T08:36:30;21.00;44.50
53978;DHT22;39886;47.984;-1.586;2022-12-15T08:38:57;21.10;44.20
53978;DHT22;39886;47.984;-1.586;2022-12-15T08:41:26;21.10;45.00
53978;DHT22;39886;47.984;-1.586;2022-12-15T08:43:53;21.10;44.70
53978;DHT22;39886;47.984;-1.586;2022-12-15T08:46:21;21.10;45.10
53978;DHT22;39886;47.984;-1.586;2022-12-15T08:48:48;21.10;44.40
53978;DHT22;39886;47.984;-1.586;2022-12-15T08:51:15;21.10;45.10
53978;DHT22;39886;47.984;-1.586;2022-12-15T08:53:44;21.20;45.30
53978;DHT22;39886;47.984;-1.586;2022-12-15T08:56:14;21.10;44.60
53978;DHT22;39886;47.984;-1.586;2022-12-15T08:58:43;21.20;44.60
53978;DHT22;39886;47.984;-1.586;2022-12-15T09:01:18;21.30;44.60
53978;DHT22;39886;47.984;-1.586;2022-12-15T09:03:45;21.30;44.80
53978;DHT22;39886;47.984;-1.586;2022-12-15T09:06:17;21.30;44.50
53978;DHT22;39886;47.984;-1.586;2022-12-15T09:08:44;21.20;45.20
53978;DHT22;39886;47.984;-1.586;2022-12-15T09:11:10;21.20;45.80
53978;DHT22;39886;47.984;-1.586;2022-12-15T09:13:37;21.20;44.50
53978;DHT22;39886;47.984;-1.586;2022-12-15T09:16:12;21.20;45.50
53978;DHT22;39886;47.984;-1.586;2022-12-15T09:18:41;21.20;44.80
53978;DHT22;39886;47.984;-1.586;2022-12-15T09:21:07;21.20;44.10
53978;DHT22;39886;47.984;-1.586;2022-12-15T09:23:34;21.20;43.80
53978;DHT22;39886;47.984;-1.586;2022-12-15T09:26:06;21.20;43.40
53978;DHT22;39886;47.984;-1.586;2022-12-15T09:28:32;21.30;43.40
53978;DHT22;39886;47.984;-1.586;2022-12-15T09:31:09;21.20;43.70
53978;DHT22;39886;47.984;-1.586;2022-12-15T09:33:36;21.20;43.20
53978;DHT22;39886;47.984;-1.586;2022-12-15T09:36:03;21.20;43.70
53978;DHT22;39886;47.984;-1.586;2022-12-15T09:38:29;21.20;43.30
53978;DHT22;39886;47.984;-1.586;2022-12-15T09:40:55;21.30;43.60
53978;DHT22;39886;47.984;-1.586;2022-12-15T09:43:26;21.20;43.20
53978;DHT22;39886;47.984;-1.586;2022-12-15T09:46:02;21.20;43.10
53978;DHT22;39886;47.984;-1.586;2022-12-15T09:48:37;21.20;44.00
53978;DHT22;39886;47.984;-1.586;2022-12-15T09:51:07;21.20;43.40
53978;DHT22;39886;47.984;-1.586;2022-12-15T09:53:37;21.20;43.80
53978;DHT22;39886;47.984;-1.586;2022-12-15T09:56:20;21.30;42.80
53978;DHT22;39886;47.984;-1.586;2022-12-15T09:59:13;21.30;43.10
53978;DHT22;39886;47.984;-1.586;2022-12-15T10:04:30;21.20;42.80
53978;DHT22;39886;47.984;-1.586;2022-12-15T10:07:18;21.20;43.30
53978;DHT22;39886;47.984;-1.586;2022-12-15T10:09:45;21.30;42.60
53978;DHT22;39886;47.984;-1.586;2022-12-15T10:12:19;21.40;43.20
53978;DHT22;39886;47.984;-1.586;2022-12-15T10:15:15;21.30;43.10
53978;DHT22;39886;47.984;-1.586;2022-12-15T10:17:51;21.40;43.00
53978;DHT22;39886;47.984;-1.586;2022-12-15T10:20:26;21.40;43.20
53978;DHT22;39886;47.984;-1.586;2022-12-15T10:22:55;21.50;43.10
53978;DHT22;39886;47.984;-1.586;2022-12-15T10:25:30;21.40;43.20
53978;DHT22;39886;47.984;-1.586;2022-12-15T10:28:07;21.50;44.10
53978;DHT22;39886;47.984;-1.586;2022-12-15T10:30:41;21.50;43.30
53978;DHT22;39886;47.984;-1.586;2022-12-15T10:33:22;21.60;43.40
53978;DHT22;39886;47.984;-1.586;2022-12-15T10:35:52;21.60;43.40
53978;DHT22;39886;47.984;-1.586;2022-12-15T10:40:58;21.60;43.10
53978;DHT22;39886;47.984;-1.586;2022-12-15T10:48:31;21.70;43.30
53978;DHT22;39886;47.984;-1.586;2022-12-15T10:53:47;21.70;43.70
53978;DHT22;39886;47.984;-1.586;2022-12-15T10:56:24;21.70;43.90
53978;DHT22;39886;47.984;-1.586;2022-12-15T10:58:56;21.70;43.60
53978;DHT22;39886;47.984;-1.586;2022-12-15T11:01:28;21.80;43.60
53978;DHT22;39886;47.984;-1.586;2022-12-15T11:03:54;21.80;44.90
53978;DHT22;39886;47.984;-1.586;2022-12-15T11:06:29;21.80;44.70
53978;DHT22;39886;47.984;-1.586;2022-12-15T11:09:06;21.80;43.80
53978;DHT22;39886;47.984;-1.586;2022-12-15T11:11:34;21.80;43.60
53978;DHT22;39886;47.984;-1.586;2022-12-15T11:14:25;21.90;44.20
53978;DHT22;39886;47.984;-1.586;2022-12-15T11:16:54;21.80;43.50
53978;DHT22;39886;47.984;-1.586;2022-12-15T11:22:22;21.80;43.70
53978;DHT22;39886;47.984;-1.586;2022-12-15T11:25:18;21.90;43.60
53978;DHT22;39886;47.984;-1.586;2022-12-15T11:27:46;21.90;43.60
53978;DHT22;39886;47.984;-1.586;2022-12-15T11:30:17;21.90;43.60
53978;DHT22;39886;47.984;-1.586;2022-12-15T11:32:49;22.00;44.20
53978;DHT22;39886;47.984;-1.586;2022-12-15T11:35:24;21.90;44.20
53978;DHT22;39886;47.984;-1.586;2022-12-15T11:40:39;22.00;44.10
53978;DHT22;39886;47.984;-1.586;2022-12-15T11:51:35;21.90;43.90
53978;DHT22;39886;47.984;-1.586;2022-12-15T11:54:26;21.90;44.30
53978;DHT22;39886;47.984;-1.586;2022-12-15T11:57:29;21.90;44.20
53978;DHT22;39886;47.984;-1.586;2022-12-15T12:00:07;21.80;42.90
53978;DHT22;39886;47.984;-1.586;2022-12-15T12:08:28;21.80;43.00
53978;DHT22;39886;47.984;-1.586;2022-12-15T12:11:15;21.80;42.50
53978;DHT22;39886;47.984;-1.586;2022-12-15T12:16:58;21.80;42.00
53978;DHT22;39886;47.984;-1.586;2022-12-15T12:19:36;21.70;41.60
53978;DHT22;39886;47.984;-1.586;2022-12-15T12:22:15;21.80;42.10
53978;DHT22;39886;47.984;-1.586;2022-12-15T12:24:49;21.80;42.20
53978;DHT22;39886;47.984;-1.586;2022-12-15T12:35:44;21.70;41.90
53978;DHT22;39886;47.984;-1.586;2022-12-15T12:38:11;21.80;42.60
53978;DHT22;39886;47.984;-1.586;2022-12-15T12:43:37;21.80;42.10
53978;DHT22;39886;47.984;-1.586;2022-12-15T12:51:29;21.80;42.50
53978;DHT22;39886;47.984;-1.586;2022-12-15T12:53:57;21.80;42.50
53978;DHT22;39886;47.984;-1.586;2022-12-15T12:58:56;21.90;42.90
53978;DHT22;39886;47.984;-1.586;2022-12-15T13:01:31;21.80;42.70
53978;DHT22;39886;47.984;-1.586;2022-12-15T13:16:46;21.90;42.30
53978;DHT22;39886;47.984;-1.586;2022-12-15T13:19:13;21.90;42.20
53978;DHT22;39886;47.984;-1.586;2022-12-15T13:26:50;22.00;42.90
53978;DHT22;39886;47.984;-1.586;2022-12-15T13:29:19;22.10;43.10
53978;DHT22;39886;47.984;-1.586;2022-12-15T13:31:47;22.10;42.90
53978;DHT22;39886;47.984;-1.586;2022-12-15T13:34:17;22.10;43.00
53978;DHT22;39886;47.984;-1.586;2022-12-15T13:36:49;22.00;42.40
53978;DHT22;39886;47.984;-1.586;2022-12-15T13:44:31;22.00;42.90
53978;DHT22;39886;47.984;-1.586;2022-12-15T13:47:12;22.00;43.50
53978;DHT22;39886;47.984;-1.586;2022-12-15T13:49:54;21.80;44.40
53978;DHT22;39886;47.984;-1.586;2022-12-15T13:54:59;21.50;44.90
53978;DHT22;39886;47.984;-1.586;2022-12-15T13:57:26;21.40;44.60
53978;DHT22;39886;47.984;-1.586;2022-12-15T14:00:12;21.40;44.50
53978;DHT22;39886;47.984;-1.586;2022-12-15T14:02:44;21.30;44.30
53978;DHT22;39886;47.984;-1.586;2022-12-15T14:10:21;21.10;45.30
53978;DHT22;39886;47.984;-1.586;2022-12-15T14:12:50;21.10;45.20
53978;DHT22;39886;47.984;-1.586;2022-12-15T14:15:18;21.00;45.60
53978;DHT22;39886;47.984;-1.586;2022-12-15T14:17:52;20.90;45.70
53978;DHT22;39886;47.984;-1.586;2022-12-15T14:20:22;20.90;45.00
53978;DHT22;39886;47.984;-1.586;2022-12-15T14:22:48;20.90;45.50
53978;DHT22;39886;47.984;-1.586;2022-12-15T14:25:20;20.80;45.50
53978;DHT22;39886;47.984;-1.586;2022-12-15T14:27:47;20.80;45.80
53978;DHT22;39886;47.984;-1.586;2022-12-15T14:30:32;20.70;45.30
53978;DHT22;39886;47.984;-1.586;2022-12-15T14:33:06;20.70;45.70
53978;DHT22;39886;47.984;-1.586;2022-12-15T14:35:50;20.70;46.00
53978;DHT22;39886;47.984;-1.586;2022-12-15T14:38:29;20.70;46.20
53978;DHT22;39886;47.984;-1.586;2022-12-15T14:40:56;20.60;45.90
53978;DHT22;39886;47.984;-1.586;2022-12-15T14:43:28;20.70;46.40
53978;DHT22;39886;47.984;-1.586;2022-12-15T14:46:08;20.60;47.00
53978;DHT22;39886;47.984;-1.586;2022-12-15T14:48:38;20.60;47.50
53978;DHT22;39886;47.984;-1.586;2022-12-15T14:51:06;20.60;48.00
53978;DHT22;39886;47.984;-1.586;2022-12-15T14:53:36;20.50;47.70
53978;DHT22;39886;47.984;-1.586;2022-12-15T14:56:21;20.50;47.90
53978;DHT22;39886;47.984;-1.586;2022-12-15T14:59:03;20.40;47.90
53978;DHT22;39886;47.984;-1.586;2022-12-15T15:03:59;20.70;47.30
53978;DHT22;39886;47.984;-1.586;2022-12-15T15:06:39;20.70;45.70
53978;DHT22;39886;47.984;-1.586;2022-12-15T15:09:24;20.90;48.10
53978;DHT22;39886;47.984;-1.586;2022-12-15T15:11:55;21.00;46.90
53978;DHT22;39886;47.984;-1.586;2022-12-15T15:14:27;21.10;46.80
53978;DHT22;39886;47.984;-1.586;2022-12-15T15:17:05;21.20;45.30
53978;DHT22;39886;47.984;-1.586;2022-12-15T15:19:35;21.20;45.30
53978;DHT22;39886;47.984;-1.586;2022-12-15T15:22:02;21.20;45.20
53978;DHT22;39886;47.984;-1.586;2022-12-15T15:24:35;21.30;46.80
53978;DHT22;39886;47.984;-1.586;2022-12-15T15:29:48;21.30;45.10
53978;DHT22;39886;47.984;-1.586;2022-12-15T15:32:20;21.40;44.90
53978;DHT22;39886;47.984;-1.586;2022-12-15T15:34:46;21.40;44.90
53978;DHT22;39886;47.984;-1.586;2022-12-15T15:37:21;21.40;44.70
53978;DHT22;39886;47.984;-1.586;2022-12-15T15:39:49;21.40;45.10
53978;DHT22;39886;47.984;-1.586;2022-12-15T15:42:16;21.50;45.10
53978;DHT22;39886;47.984;-1.586;2022-12-15T15:44:42;21.50;44.50
53978;DHT22;39886;47.984;-1.586;2022-12-15T15:47:26;21.50;44.30
53978;DHT22;39886;47.984;-1.586;2022-12-15T15:49:53;21.60;44.30
53978;DHT22;39886;47.984;-1.586;2022-12-15T15:52:20;21.60;44.30
53978;DHT22;39886;47.984;-1.586;2022-12-15T15:54:46;21.60;44.30
53978;DHT22;39886;47.984;-1.586;2022-12-15T15:57:13;21.60;44.50
53978;DHT22;39886;47.984;-1.586;2022-12-15T15:59:40;21.70;44.60
53978;DHT22;39886;47.984;-1.586;2022-12-15T16:02:11;21.70;44.90
53978;DHT22;39886;47.984;-1.586;2022-12-15T16:04:41;21.90;44.60
53978;DHT22;39886;47.984;-1.586;2022-12-15T16:07:21;22.00;44.90
53978;DHT22;39886;47.984;-1.586;2022-12-15T16:09:48;21.80;44.60
53978;DHT22;39886;47.984;-1.586;2022-12-15T16:12:46;21.70;45.10
53978;DHT22;39886;47.984;-1.586;2022-12-15T16:15:18;21.50;44.70
53978;DHT22;39886;47.984;-1.586;2022-12-15T16:17:44;21.70;44.20
53978;DHT22;39886;47.984;-1.586;2022-12-15T16:20:12;21.70;44.80
53978;DHT22;39886;47.984;-1.586;2022-12-15T16:22:38;21.70;44.50
53978;DHT22;39886;47.984;-1.586;2022-12-15T16:25:08;21.50;44.70
53978;DHT22;39886;47.984;-1.586;2022-12-15T16:27:37;21.80;44.30
53978;DHT22;39886;47.984;-1.586;2022-12-15T16:30:14;21.20;44.10
53978;DHT22;39886;47.984;-1.586;2022-12-15T16:32:40;22.00;44.50
53978;DHT22;39886;47.984;-1.586;2022-12-15T16:35:06;21.80;44.00
53978;DHT22;39886;47.984;-1.586;2022-12-15T16:37:32;21.90;44.50
53978;DHT22;39886;47.984;-1.586;2022-12-15T16:39:58;21.80;44.40
53978;DHT22;39886;47.984;-1.586;2022-12-15T16:42:24;21.80;44.60
53978;DHT22;39886;47.984;-1.586;2022-12-15T16:44:50;21.80;44.50
53978;DHT22;39886;47.984;-1.586;2022-12-15T16:47:16;21.80;44.10
53978;DHT22;39886;47.984;-1.586;2022-12-15T16:49:41;21.80;44.10
53978;DHT22;39886;47.984;-1.586;2022-12-15T16:52:17;21.90;44.20
53978;DHT22;39886;47.984;-1.586;2022-12-15T16:54:46;21.80;44.70
53978;DHT22;39886;47.984;-1.586;2022-12-15T16:57:12;21.60;45.00
53978;DHT22;39886;47.984;-1.586;2022-12-15T16:59:39;21.40;45.20
53978;DHT22;39886;47.984;-1.586;2022-12-15T17:02:25;21.30;45.00
53978;DHT22;39886;47.984;-1.586;2022-12-15T17:04:51;21.20;45.50
53978;DHT22;39886;47.984;-1.586;2022-12-15T17:07:19;21.10;45.80
53978;DHT22;39886;47.984;-1.586;2022-12-15T17:09:48;21.00;46.10
53978;DHT22;39886;47.984;-1.586;2022-12-15T17:12:16;20.90;47.20
53978;DHT22;39886;47.984;-1.586;2022-12-15T17:14:43;20.80;47.70
53978;DHT22;39886;47.984;-1.586;2022-12-15T17:17:17;20.70;49.50
53978;DHT22;39886;47.984;-1.586;2022-12-15T17:19:43;20.80;51.40
53978;DHT22;39886;47.984;-1.586;2022-12-15T17:22:13;20.70;54.00
53978;DHT22;39886;47.984;-1.586;2022-12-15T17:24:41;20.60;56.30
53978;DHT22;39886;47.984;-1.586;2022-12-15T17:27:18;20.60;55.40
53978;DHT22;39886;47.984;-1.586;2022-12-15T17:29:46;20.30;55.10
53978;DHT22;39886;47.984;-1.586;2022-12-15T17:32:12;20.40;54.90
53978;DHT22;39886;47.984;-1.586;2022-12-15T17:34:38;20.40;54.70